Nearby METAR Reports

 

KAVP - Avoca/Wilkes B., Pennsylvania, USA
Distance from station: N 16mi, 25km
Updated: 10/19/2020 7:54pm
Overcast
Overcast
 Wind from N
Wind: N 3 mph , 6 km/h
Temperature: 61°F , 16°C
Dew Point: 54°F , 12°C
Humidity: 77%
Barometer: 30.24 inHg , 1024 hPa
Clouds: Overcast
Visibility: 10 miles , 16 km
Cloud details: Overcast 5500 ft
2020/10/19 23:54 KAVP 192354Z AUTO 35003KT 10SM OVC055 16/12 A3024 RMK AO2 RAE22 SLP239 P0000 60000 T01560122 10178 20150 55006
KMPO - Mt. Pocono, Pennsylvania, USA
Distance from station: E 20mi, 33km
Updated: 10/19/2020 7:53pm
Light rain, Overcast
Light rain, Overcast
 Wind from SE
Wind: SE 6 mph , 9 km/h
Temperature: 55°F , 13°C
Dew Point: 52°F , 11°C
Humidity: 88%
Barometer: 30.28 inHg , 1025.4 hPa
Summary: Light rain
Clouds: Overcast
Visibility: 10 miles , 16 km
Cloud details: Few Clouds 2200 ft
Mostly cloudy 8000 ft
Overcast 11000 ft
2020/10/19 23:53 KMPO 192353Z AUTO 14005KT 10SM -RA FEW022 BKN080 OVC110 13/11 A3028 RMK AO2 RAB44 SLP256 P0000 60000 T01280106 10133 20122 55005
 
KABE - Allentown, Pennsylvania, USA
Distance from station: SSE 36mi, 58km
Updated: 10/19/2020 7:51pm
Few Clouds
Few Clouds
 Wind from SE
Wind: SE 7 mph , 11 km/h
Temperature: 63°F , 17°C
Dew Point: 54°F , 12°C
Humidity: 73%
Barometer: 30.25 inHg , 1024.4 hPa
Clouds: Few Clouds
Visibility: 10 miles , 16 km
Cloud details: Few Clouds 5000 ft
2020/10/19 23:51 KABE 192351Z 13006KT 10SM FEW050 17/12 A3025 RMK AO2 SLP244 T01720117 10194 20172 58001
KXLL - Allentown Queen, Pennsylvania, USA
Distance from station: SSE 41mi, 65km
Updated: 10/19/2020 7:55pm
Clear
Clear
 Wind from SE
Wind: SE 8 mph , 13 km/h
Temperature: 63°F , 17°C
Dew Point: 54°F , 12°C
Humidity: 73%
Barometer: 30.27 inHg , 1025.1 hPa
Clouds: Clear
Visibility: 10 miles , 16 km
2020/10/19 23:55 KXLL 192355Z AUTO 14007KT 10SM CLR 17/12 A3027 RMK AO2